Time;durP1;ratioP1;P1;durP2;ratioP2;P2;SDS_P1;SDS_P2;PMS_P1;PMS_P2;Temp;Humidity;BMP_temperature;BMP_pressure;BME280_temperature;BME280_humidity;BME280_pressure;Samples;Min_cycle;Max_cycle;Signal;HPM_P1;HPM_P2
2021/09/15 00:00:59;;;;;;;4.85;4.45;;;18.50;99.90;;;;;;5043329;28;20432;-80
2021/09/15 00:03:25;;;;;;;4.90;4.50;;;18.50;99.90;;;;;;5045227;28;20117;-79
2021/09/15 00:05:50;;;;;;;5.15;4.65;;;18.50;99.90;;;;;;5024585;28;20018;-81
2021/09/15 00:08:16;;;;;;;4.63;4.22;;;18.50;99.90;;;;;;5040195;28;20030;-80
2021/09/15 00:10:42;;;;;;;4.47;4.07;;;18.50;99.90;;;;;;5004442;28;20025;-81
2021/09/15 00:13:08;;;;;;;4.78;4.38;;;18.40;99.90;;;;;;5022603;28;20470;-80
2021/09/15 00:15:33;;;;;;;5.43;4.93;;;18.40;99.90;;;;;;5040607;28;20503;-79
2021/09/15 00:17:59;;;;;;;4.75;4.35;;;18.40;99.90;;;;;;5041242;28;20038;-79
2021/09/15 00:20:25;;;;;;;5.82;5.32;;;18.40;99.90;;;;;;5041367;28;20017;-79
2021/09/15 00:22:51;;;;;;;5.22;4.63;;;18.40;99.90;;;;;;5042686;28;20030;-78
2021/09/15 00:25:17;;;;;;;5.25;4.75;;;18.40;99.90;;;;;;5039366;28;20025;-77
2021/09/15 00:27:42;;;;;;;4.90;4.50;;;18.40;99.90;;;;;;5026709;28;20025;-79
2021/09/15 00:30:09;;;;;;;5.25;4.82;;;18.40;99.90;;;;;;5004245;28;20025;-80
2021/09/15 00:32:34;;;;;;;5.10;4.60;;;18.40;99.90;;;;;;5025487;28;20054;-79
2021/09/15 00:35:00;;;;;;;4.75;4.30;;;18.30;99.90;;;;;;5020523;28;20091;-76
2021/09/15 00:37:26;;;;;;;5.30;4.80;;;18.30;99.90;;;;;;5010501;28;20187;-78
2021/09/15 00:39:52;;;;;;;4.35;3.95;;;18.30;99.90;;;;;;5037105;28;20506;-78
2021/09/15 00:42:18;;;;;;;4.85;4.07;;;18.30;99.90;;;;;;5038753;28;20029;-79
2021/09/15 00:44:43;;;;;;;5.18;4.60;;;18.30;99.90;;;;;;5039719;28;20017;-80
2021/09/15 00:47:09;;;;;;;4.00;3.70;;;18.30;99.90;;;;;;5039111;28;20490;-81
2021/09/15 00:49:35;;;;;;;4.30;3.90;;;18.30;99.90;;;;;;5041141;28;20459;-82
2021/09/15 00:52:01;;;;;;;4.97;4.57;;;18.30;99.90;;;;;;5041579;28;20054;-79
2021/09/15 00:54:27;;;;;;;5.70;4.70;;;18.20;99.90;;;;;;5044796;28;20036;-82
2021/09/15 00:56:53;;;;;;;5.80;4.85;;;18.20;99.90;;;;;;5049076;28;20035;-80
2021/09/15 00:59:19;;;;;;;5.30;4.80;;;18.20;99.90;;;;;;5048169;28;20104;-83
2021/09/15 01:01:45;;;;;;;5.15;4.75;;;18.20;99.90;;;;;;5038092;28;20382;-79
2021/09/15 01:04:11;;;;;;;5.38;4.88;;;18.20;99.90;;;;;;5032994;28;20084;-79
2021/09/15 01:06:37;;;;;;;5.78;5.28;;;18.10;99.90;;;;;;5014612;28;20022;-78
2021/09/15 01:09:05;;;;;;;5.68;5.18;;;18.10;99.90;;;;;;5024409;28;20020;-81
2021/09/15 01:11:38;;;;;;;5.47;4.97;;;18.00;99.90;;;;;;5022166;28;20014;-78
2021/09/15 01:14:04;;;;;;;4.90;4.50;;;18.00;99.90;;;;;;5013400;28;20581;-79
2021/09/15 01:16:50;;;;;;;4.90;4.45;;;18.00;99.90;;;;;;5012731;28;20108;-79
2021/09/15 01:19:16;;;;;;;4.90;4.47;;;18.00;99.90;;;;;;5012363;28;20106;-80
2021/09/15 01:21:42;;;;;;;4.38;3.97;;;18.00;99.90;;;;;;5017109;28;20085;-79
2021/09/15 01:24:08;;;;;;;5.10;4.63;;;18.00;99.90;;;;;;5016152;28;20482;-79
2021/09/15 01:26:35;;;;;;;4.95;4.45;;;18.00;99.90;;;;;;5016055;28;20053;-78
2021/09/15 01:29:21;;;;;;;4.40;4.10;;;18.00;99.90;;;;;;5019144;28;20164;-78
2021/09/15 01:32:00;;;;;;;4.55;4.15;;;18.00;99.90;;;;;;5015686;28;20038;-78
2021/09/15 01:34:27;;;;;;;5.13;4.65;;;18.00;99.90;;;;;;5019193;28;20096;-78
2021/09/15 01:36:53;;;;;;;5.30;4.80;;;17.90;99.90;;;;;;5017066;28;20025;-78
2021/09/15 01:39:22;;;;;;;4.53;4.10;;;17.80;99.90;;;;;;5026687;28;20030;-79
2021/09/15 01:41:48;;;;;;;4.68;4.10;;;17.80;99.90;;;;;;5028659;28;20014;-81
2021/09/15 01:44:13;;;;;;;4.90;4.40;;;17.70;99.90;;;;;;5038013;28;20028;-77
2021/09/15 01:46:39;;;;;;;4.53;4.15;;;17.70;99.90;;;;;;5037683;28;20020;-78
2021/09/15 01:49:05;;;;;;;4.60;4.20;;;17.60;99.90;;;;;;5036391;28;20018;-78
2021/09/15 01:51:31;;;;;;;4.55;4.15;;;17.60;99.90;;;;;;5020551;28;20079;-79
2021/09/15 01:53:57;;;;;;;4.57;4.18;;;17.50;99.90;;;;;;5039072;28;20088;-80
2021/09/15 01:56:22;;;;;;;4.80;4.40;;;17.50;99.90;;;;;;5037617;28;20021;-82
2021/09/15 01:58:48;;;;;;;4.55;4.15;;;17.40;99.90;;;;;;5039559;28;20060;-79
2021/09/15 02:01:14;;;;;;;5.03;4.53;;;17.40;99.90;;;;;;5024658;28;20506;-78
2021/09/15 02:03:39;;;;;;;4.43;4.00;;;17.40;99.90;;;;;;5042938;28;20040;-80
2021/09/15 02:06:05;;;;;;;5.20;4.70;;;17.40;99.90;;;;;;5047465;28;20029;-82
2021/09/15 02:08:31;;;;;;;5.10;4.70;;;17.30;99.90;;;;;;5033591;28;20327;-76
2021/09/15 02:10:57;;;;;;;5.32;4.82;;;17.30;99.90;;;;;;5008391;28;20136;-77
2021/09/15 02:13:25;;;;;;;4.68;4.25;;;17.30;99.90;;;;;;5034830;28;20049;-80
2021/09/15 02:15:51;;;;;;;5.03;4.53;;;17.20;99.90;;;;;;5043005;28;20028;-77
2021/09/15 02:18:17;;;;;;;5.10;4.60;;;17.20;99.90;;;;;;5039541;28;20030;-78
2021/09/15 02:20:45;;;;;;;4.47;4.07;;;17.20;99.90;;;;;;5042032;28;20067;-78
2021/09/15 02:23:11;;;;;;;4.72;4.32;;;17.10;99.90;;;;;;5021206;28;20017;-78
2021/09/15 02:25:37;;;;;;;4.63;4.22;;;17.10;99.90;;;;;;5037352;28;20105;-81
2021/09/15 02:28:03;;;;;;;6.18;4.95;;;17.10;99.90;;;;;;5039197;28;20032;-78
2021/09/15 02:30:29;;;;;;;5.70;5.20;;;17.10;99.90;;;;;;5036817;28;20017;-78
2021/09/15 02:32:55;;;;;;;5.00;4.60;;;17.00;99.90;;;;;;5008419;28;20093;-78
2021/09/15 02:35:20;;;;;;;5.10;4.70;;;17.00;99.90;;;;;;5008971;28;20057;-79
2021/09/15 02:37:46;;;;;;;5.28;4.78;;;17.00;99.90;;;;;;5031107;28;20047;-78
2021/09/15 02:40:12;;;;;;;4.85;4.45;;;17.00;99.90;;;;;;5034966;28;20037;-78
2021/09/15 02:42:38;;;;;;;4.80;4.40;;;17.00;99.90;;;;;;5030878;28;20037;-81
2021/09/15 02:45:04;;;;;;;5.15;4.60;;;17.00;99.90;;;;;;5024647;28;20080;-81
2021/09/15 02:47:30;;;;;;;5.15;4.65;;;17.00;99.90;;;;;;5024794;28;21325;-78
2021/09/15 02:49:56;;;;;;;5.30;4.80;;;17.00;99.90;;;;;;5008945;28;20018;-80
2021/09/15 02:52:21;;;;;;;5.50;4.97;;;16.90;99.90;;;;;;5016193;28;20029;-80
2021/09/15 02:54:47;;;;;;;5.47;4.95;;;16.90;99.90;;;;;;5039318;28;20033;-78
2021/09/15 02:57:13;;;;;;;6.22;5.63;;;16.90;99.90;;;;;;5039708;28;20051;-78
2021/09/15 02:59:38;;;;;;;5.85;5.32;;;16.90;99.90;;;;;;5040072;28;20029;-78
2021/09/15 03:02:04;;;;;;;5.40;4.90;;;16.90;99.90;;;;;;5040298;28;20100;-79
2021/09/15 03:04:30;;;;;;;7.22;4.68;;;16.80;99.90;;;;;;5039743;28;20022;-80
2021/09/15 03:06:56;;;;;;;5.43;4.38;;;16.90;99.90;;;;;;5039544;28;20103;-79
2021/09/15 03:09:22;;;;;;;5.18;4.68;;;16.80;99.90;;;;;;5035456;28;20030;-80
2021/09/15 03:11:47;;;;;;;5.03;4.57;;;16.80;99.90;;;;;;5012070;28;20399;-78
2021/09/15 03:14:13;;;;;;;5.30;4.85;;;16.80;99.90;;;;;;5028475;28;20117;-78
2021/09/15 03:16:39;;;;;;;5.32;4.82;;;16.80;99.90;;;;;;5043131;28;20025;-78
2021/09/15 03:19:04;;;;;;;6.03;5.43;;;16.80;99.90;;;;;;5039513;28;20483;-78
2021/09/15 03:21:30;;;;;;;4.90;4.45;;;16.80;99.90;;;;;;5022325;28;20028;-80
2021/09/15 03:23:56;;;;;;;5.10;4.70;;;16.80;99.90;;;;;;5038410;28;20060;-79
2021/09/15 03:26:22;;;;;;;5.30;4.80;;;16.90;99.90;;;;;;5041175;28;20022;-77
2021/09/15 03:28:47;;;;;;;5.30;4.88;;;16.90;99.90;;;;;;5038054;28;20155;-78
2021/09/15 03:31:13;;;;;;;5.25;4.57;;;16.90;99.90;;;;;;5040120;28;20132;-78
2021/09/15 03:33:39;;;;;;;5.80;5.22;;;16.90;99.90;;;;;;5029930;28;20094;-79
2021/09/15 03:36:05;;;;;;;5.68;5.18;;;16.90;99.90;;;;;;5022569;28;20025;-81
2021/09/15 03:38:30;;;;;;;5.82;5.30;;;16.80;99.90;;;;;;5038594;28;20122;-80
2021/09/15 03:40:56;;;;;;;6.15;5.65;;;16.80;99.90;;;;;;5034940;28;20057;-79
2021/09/15 03:43:22;;;;;;;5.93;5.32;;;16.80;99.90;;;;;;5022578;28;20025;-79
2021/09/15 03:45:47;;;;;;;5.32;4.93;;;16.70;99.90;;;;;;5040394;28;20032;-78
2021/09/15 03:48:13;;;;;;;6.32;5.60;;;16.70;99.90;;;;;;5038940;28;20045;-80
2021/09/15 03:50:39;;;;;;;6.10;5.50;;;16.70;99.90;;;;;;5019494;28;20116;-78
2021/09/15 04:14:10;;;;;;;5.95;5.40;;;16.70;99.90;;;;;;5024714;28;20045;-85
2021/09/15 04:33:27;;;;;;;5.63;5.13;;;16.60;99.90;;;;;;4963066;28;20078;-81
2021/09/15 04:35:56;;;;;;;5.10;4.60;;;16.60;99.90;;;;;;5004168;28;20038;-80
2021/09/15 04:38:22;;;;;;;5.05;4.55;;;16.60;99.90;;;;;;5048426;28;20013;-82
2021/09/15 04:40:47;;;;;;;5.47;4.97;;;16.60;99.90;;;;;;5047313;28;20051;-80
2021/09/15 04:43:13;;;;;;;5.50;4.90;;;16.70;99.90;;;;;;5029756;28;20053;-80
2021/09/15 04:45:39;;;;;;;5.72;5.00;;;16.70;99.90;;;;;;5019309;28;20030;-79
2021/09/15 04:48:05;;;;;;;5.68;5.18;;;16.70;99.90;;;;;;5023274;28;20033;-81
2021/09/15 04:50:31;;;;;;;5.05;4.60;;;16.80;99.90;;;;;;5019391;28;20358;-82
2021/09/15 04:52:57;;;;;;;7.32;5.78;;;16.80;99.90;;;;;;5019815;28;20039;-81
2021/09/15 04:55:22;;;;;;;6.03;5.43;;;16.90;99.90;;;;;;5021094;28;20036;-81
2021/09/15 04:57:49;;;;;;;6.53;5.70;;;16.90;99.90;;;;;;5039804;28;20424;-78
2021/09/15 05:00:15;;;;;;;5.93;5.32;;;16.90;99.90;;;;;;5047871;28;20037;-78
2021/09/15 05:02:40;;;;;;;5.93;5.40;;;16.90;99.90;;;;;;5055676;28;20333;-82
2021/09/15 05:05:07;;;;;;;7.45;5.22;;;16.90;99.90;;;;;;5043576;28;20029;-80
2021/09/15 05:07:33;;;;;;;5.68;5.18;;;17.00;99.90;;;;;;5037174;28;20120;-80
2021/09/15 05:09:59;;;;;;;5.68;5.10;;;17.00;99.90;;;;;;5025147;28;20131;-81
2021/09/15 05:12:25;;;;;;;6.13;5.45;;;17.00;99.90;;;;;;5031609;28;20070;-80
2021/09/15 05:14:50;;;;;;;6.88;5.47;;;16.90;99.90;;;;;;5019934;28;20028;-80
2021/09/15 05:17:16;;;;;;;5.55;5.03;;;17.00;99.90;;;;;;5019822;28;20037;-79
2021/09/15 05:23:06;;;;;;;5.28;4.78;;;17.00;99.90;;;;;;5036514;28;20121;-81
2021/09/15 05:25:32;;;;;;;5.85;5.28;;;17.10;99.90;;;;;;5036303;28;20053;-80
2021/09/15 05:27:59;;;;;;;5.50;5.00;;;17.10;99.90;;;;;;5015336;28;20025;-80
2021/09/15 05:30:26;;;;;;;5.50;4.60;;;17.10;99.90;;;;;;5021767;28;20029;-80
2021/09/15 05:32:54;;;;;;;5.68;4.93;;;17.10;99.90;;;;;;5038168;28;20025;-81
2021/09/15 05:35:20;;;;;;;5.93;5.20;;;17.10;99.90;;;;;;5024550;28;20029;-80
2021/09/15 05:37:46;;;;;;;5.80;4.97;;;17.10;99.90;;;;;;5037150;28;20159;-80
2021/09/15 05:40:13;;;;;;;5.97;5.18;;;17.10;99.90;;;;;;5016885;28;20394;-81
2021/09/15 05:42:41;;;;;;;5.97;5.00;;;17.20;99.90;;;;;;5019284;28;20025;-81
2021/09/15 05:45:07;;;;;;;5.80;4.35;;;17.30;99.90;;;;;;5052800;28;20010;-80
2021/09/15 05:47:33;;;;;;;4.80;4.40;;;17.60;99.90;;;;;;5055060;28;20022;-81
2021/09/15 05:50:00;;;;;;;5.10;4.60;;;17.70;99.90;;;;;;5038113;28;20013;-81
2021/09/15 05:52:26;;;;;;;5.53;4.75;;;17.80;99.90;;;;;;5037404;28;20044;-82
2021/09/15 05:54:52;;;;;;;4.63;4.22;;;17.90;99.90;;;;;;5028234;28;20040;-78
2021/09/15 05:57:21;;;;;;;4.88;4.32;;;18.00;99.90;;;;;;5043515;28;20044;-80
2021/09/15 05:59:47;;;;;;;4.55;4.15;;;18.10;99.90;;;;;;5053480;28;20065;-80
2021/09/15 06:02:15;;;;;;;6.85;4.45;;;18.20;99.90;;;;;;5046295;28;20025;-80
2021/09/15 06:04:41;;;;;;;5.50;4.40;;;18.30;99.90;;;;;;5048829;28;20029;-81
2021/09/15 06:07:07;;;;;;;4.85;4.45;;;18.40;99.90;;;;;;5050913;28;20068;-80
2021/09/15 06:09:33;;;;;;;5.82;4.47;;;18.40;99.90;;;;;;5041690;28;20022;-81
2021/09/15 06:11:58;;;;;;;6.15;5.15;;;18.60;99.90;;;;;;5027707;28;20080;-79
2021/09/15 06:14:25;;;;;;;6.47;5.70;;;18.70;99.90;;;;;;5027326;28;20034;-81
2021/09/15 06:16:51;;;;;;;7.32;5.90;;;18.70;99.90;;;;;;5044199;28;20040;-81
2021/09/15 06:19:16;;;;;;;7.07;5.15;;;18.90;99.90;;;;;;5042071;28;20037;-82
2021/09/15 06:21:42;;;;;;;5.88;5.30;;;19.00;99.90;;;;;;5039976;28;20026;-82
2021/09/15 06:24:08;;;;;;;6.63;5.55;;;19.00;99.80;;;;;;5040946;28;20022;-80
2021/09/15 06:26:34;;;;;;;6.38;4.80;;;19.00;99.90;;;;;;5027267;28;20446;-81
2021/09/15 06:29:00;;;;;;;6.07;4.63;;;19.10;99.80;;;;;;5040686;28;20021;-81
2021/09/15 06:31:26;;;;;;;7.40;5.40;;;19.10;99.70;;;;;;5025592;28;20047;-81
2021/09/15 06:33:52;;;;;;;5.72;5.05;;;19.20;99.50;;;;;;5043077;28;20013;-80
2021/09/15 06:36:19;;;;;;;7.70;5.72;;;19.20;99.30;;;;;;5041710;28;20362;-83
2021/09/15 06:38:45;;;;;;;9.40;5.85;;;19.40;99.10;;;;;;5022249;28;20117;-82
2021/09/15 06:41:11;;;;;;;6.13;5.53;;;19.50;98.40;;;;;;5007432;28;20091;-84
2021/09/15 06:43:38;;;;;;;7.03;5.10;;;19.60;98.10;;;;;;5018464;28;20025;-84
2021/09/15 06:46:04;;;;;;;5.88;5.28;;;19.70;97.80;;;;;;5035825;28;20089;-82
2021/09/15 06:48:30;;;;;;;6.00;5.07;;;19.80;97.60;;;;;;5047956;28;20065;-82
2021/09/15 06:50:59;;;;;;;5.32;4.82;;;20.00;97.20;;;;;;5014137;28;20034;-84
2021/09/15 06:53:25;;;;;;;5.90;5.40;;;20.10;96.90;;;;;;5030623;28;20032;-82
2021/09/15 07:23:25;;;;;;;5.65;5.00;;;20.20;95.70;;;;;;4987064;28;20035;-87
2021/09/15 07:25:54;;;;;;;6.30;5.07;;;20.40;96.00;;;;;;4973584;28;20035;-87
2021/09/15 07:28:21;;;;;;;5.20;4.70;;;20.50;96.00;;;;;;5020498;28;20025;-86
2021/09/15 07:30:47;;;;;;;5.57;5.07;;;20.60;95.90;;;;;;5035864;28;20046;-87
2021/09/15 07:33:14;;;;;;;6.28;5.68;;;20.60;95.70;;;;;;5037032;28;20013;-85
2021/09/15 07:35:40;;;;;;;7.95;5.40;;;20.70;95.80;;;;;;5036676;28;20036;-84
2021/09/15 07:38:06;;;;;;;5.65;5.15;;;20.90;95.70;;;;;;5042015;28;20045;-87
2021/09/15 07:40:32;;;;;;;5.10;4.57;;;21.10;95.60;;;;;;5028460;28;20487;-87
2021/09/15 07:43:00;;;;;;;5.53;5.03;;;21.30;95.20;;;;;;5023807;28;20191;-88
2021/09/15 07:45:28;;;;;;;9.70;6.18;;;21.40;94.40;;;;;;5028593;28;20026;-87
2021/09/15 07:47:53;;;;;;;7.00;6.03;;;21.50;93.60;;;;;;5007627;28;20545;-88
2021/09/15 07:50:19;;;;;;;9.10;5.75;;;21.60;93.40;;;;;;5005781;28;20030;-88
2021/09/15 07:52:45;;;;;;;9.25;6.53;;;21.60;93.10;;;;;;5007683;28;20033;-87
2021/09/15 07:55:11;;;;;;;7.63;6.13;;;21.60;92.80;;;;;;5042957;28;20026;-86
2021/09/15 07:57:52;;;;;;;10.50;7.03;;;21.60;92.80;;;;;;5040968;28;20029;-87
2021/09/15 08:00:18;;;;;;;12.13;7.55;;;21.70;92.50;;;;;;5041393;28;20120;-86
2021/09/15 08:02:44;;;;;;;7.30;6.53;;;21.80;91.90;;;;;;5022173;28;20500;-85
2021/09/15 08:05:18;;;;;;;7.53;6.72;;;21.80;91.40;;;;;;5038826;28;20061;-86
2021/09/15 08:07:45;;;;;;;10.45;6.65;;;21.90;91.30;;;;;;5045827;28;20030;-86
2021/09/15 08:10:11;;;;;;;7.60;6.35;;;22.00;91.00;;;;;;5047399;28;20032;-89
2021/09/15 08:12:46;;;;;;;8.73;6.57;;;22.00;90.90;;;;;;5019266;28;20025;-87
2021/09/15 08:15:21;;;;;;;6.38;5.78;;;22.00;90.80;;;;;;5020762;28;20033;-86
2021/09/15 08:17:51;;;;;;;6.45;5.85;;;21.80;90.90;;;;;;5028337;28;20049;-86
2021/09/15 08:34:34;;;;;;;7.27;6.57;;;22.30;90.70;;;;;;4923020;29;20080;-88
2021/09/15 08:37:00;;;;;;;6.28;5.20;;;22.50;90.30;;;;;;4921211;29;20560;-86
2021/09/15 08:39:26;;;;;;;5.30;4.90;;;22.70;89.90;;;;;;4914639;29;20095;-89
2021/09/15 08:41:53;;;;;;;5.13;4.72;;;22.90;88.60;;;;;;4936963;29;20063;-88
2021/09/15 08:44:19;;;;;;;5.68;5.10;;;23.10;87.60;;;;;;4949649;28;20031;-87
2021/09/15 09:07:09;;;;;;;6.35;4.63;;;24.60;80.40;;;;;;5045558;28;20066;-88
2021/09/15 09:20:31;;;;;;;6.57;4.72;;;24.30;79.80;;;;;;5023483;28;20565;-88
2021/09/15 09:23:07;;;;;;;5.03;4.63;;;24.40;79.10;;;;;;5001434;28;20037;-87
2021/09/15 09:25:45;;;;;;;4.30;4.00;;;24.30;78.70;;;;;;5027292;28;20017;-86
2021/09/15 09:28:22;;;;;;;4.75;4.35;;;24.40;78.10;;;;;;5037130;28;20088;-84
2021/09/15 09:30:50;;;;;;;6.30;4.55;;;24.30;77.80;;;;;;5047472;28;20041;-85
2021/09/15 09:33:16;;;;;;;4.82;4.43;;;24.30;78.00;;;;;;5030548;28;20026;-85
2021/09/15 09:35:49;;;;;;;4.80;4.40;;;24.20;78.10;;;;;;5046953;28;20037;-87
2021/09/15 09:38:33;;;;;;;4.90;4.50;;;24.10;78.20;;;;;;5031441;28;20018;-86
2021/09/15 09:41:06;;;;;;;5.10;4.60;;;23.90;78.70;;;;;;5024907;28;20029;-85
2021/09/15 09:43:40;;;;;;;5.57;4.53;;;23.80;79.50;;;;;;5021693;28;20136;-84
2021/09/15 09:46:09;;;;;;;5.20;4.70;;;23.70;80.10;;;;;;5021641;28;20018;-86
2021/09/15 09:48:45;;;;;;;5.25;4.60;;;23.50;80.90;;;;;;5023985;28;20030;-86
2021/09/15 09:51:33;;;;;;;7.28;5.20;;;23.40;81.50;;;;;;5006853;28;20029;-86
2021/09/15 09:54:21;;;;;;;5.75;5.20;;;23.20;82.00;;;;;;5022691;28;20026;-87
2021/09/15 09:56:49;;;;;;;7.32;6.63;;;23.20;82.40;;;;;;5022184;28;20022;-86
2021/09/15 09:59:16;;;;;;;7.05;5.80;;;23.10;82.90;;;;;;5023311;28;20026;-85
2021/09/15 10:01:48;;;;;;;6.80;6.10;;;23.20;82.90;;;;;;5005937;28;20049;-85
2021/09/15 10:04:19;;;;;;;9.35;5.95;;;23.50;82.70;;;;;;5022959;28;20022;-85
2021/09/15 10:07:49;;;;;;;13.13;6.90;;;24.10;80.70;;;;;;5025795;28;20018;-86
2021/09/15 10:10:20;;;;;;;9.68;6.15;;;24.90;76.70;;;;;;4999678;28;20026;-85
2021/09/15 10:12:49;;;;;;;6.80;5.73;;;25.40;75.00;;;;;;5014403;28;20037;-87
2021/09/15 10:15:17;;;;;;;6.85;5.57;;;25.60;74.10;;;;;;5014041;28;20093;-87
2021/09/15 10:17:54;;;;;;;9.75;6.03;;;25.60;73.60;;;;;;5029952;28;20022;-85
2021/09/15 10:20:29;;;;;;;6.85;6.13;;;25.50;74.10;;;;;;5015511;28;20025;-84
2021/09/15 10:22:56;;;;;;;6.78;5.80;;;25.50;73.70;;;;;;5024251;28;20026;-85
2021/09/15 10:25:39;;;;;;;9.23;5.35;;;25.60;72.80;;;;;;5050629;28;20025;-85
2021/09/15 10:28:11;;;;;;;8.75;6.75;;;25.50;73.70;;;;;;5038790;28;20090;-86
2021/09/15 10:31:06;;;;;;;7.07;6.38;;;25.50;72.50;;;;;;5032856;28;20033;-87
2021/09/15 10:33:35;;;;;;;6.20;5.57;;;25.50;72.70;;;;;;5009720;28;20022;-87
2021/09/15 10:36:19;;;;;;;6.18;5.50;;;25.50;72.60;;;;;;5015276;28;20022;-88
2021/09/15 10:38:55;;;;;;;9.77;6.15;;;25.40;72.80;;;;;;5044022;28;20060;-85
2021/09/15 10:41:47;;;;;;;8.90;7.57;;;25.30;72.80;;;;;;5017953;28;20449;-85
2021/09/15 10:44:15;;;;;;;7.15;6.07;;;25.10;73.80;;;;;;5045457;28;20126;-85
2021/09/15 10:47:14;;;;;;;10.18;7.65;;;25.00;75.40;;;;;;5044492;28;20037;-82
2021/09/15 10:49:45;;;;;;;9.15;8.25;;;25.10;74.40;;;;;;5025867;28;20087;-85
2021/09/15 10:52:11;;;;;;;8.90;7.43;;;25.00;74.40;;;;;;5030937;28;20352;-87
2021/09/15 10:54:43;;;;;;;13.63;8.38;;;24.80;74.90;;;;;;5004833;28;20345;-87
2021/09/15 10:57:13;;;;;;;7.95;7.13;;;24.80;75.50;;;;;;5017812;28;20034;-86
2021/09/15 10:59:54;;;;;;;11.75;7.30;;;24.90;75.60;;;;;;5042770;28;20088;-86
2021/09/15 11:02:23;;;;;;;11.20;8.32;;;24.80;75.70;;;;;;5026163;28;20041;-85
2021/09/15 11:04:49;;;;;;;9.90;7.20;;;24.80;75.60;;;;;;5044275;28;20021;-86
2021/09/15 11:07:45;;;;;;;16.80;8.20;;;24.80;76.40;;;;;;5048072;28;20131;-85
2021/09/15 11:10:34;;;;;;;9.25;7.03;;;24.90;75.00;;;;;;5014396;28;20106;-87
2021/09/15 11:13:24;;;;;;;8.30;6.70;;;24.90;75.60;;;;;;5015297;28;20029;-86
2021/09/15 11:15:53;;;;;;;7.25;6.05;;;24.90;76.40;;;;;;5021736;28;20097;-88
2021/09/15 11:18:27;;;;;;;8.70;6.55;;;25.00;74.90;;;;;;5032400;28;20125;-86
2021/09/15 11:20:55;;;;;;;9.32;7.35;;;25.10;74.50;;;;;;5077087;22;20041;-82
2021/09/15 11:23:26;;;;;;;8.05;5.88;;;25.20;72.30;;;;;;5062480;28;20021;-81
2021/09/15 11:25:51;;;;;;;8.57;6.07;;;25.10;73.00;;;;;;5063140;28;20079;-82
2021/09/15 11:28:19;;;;;;;10.38;6.85;;;25.00;73.40;;;;;;5063690;28;20028;-81
2021/09/15 11:30:51;;;;;;;6.95;5.93;;;25.00;71.90;;;;;;5052778;28;20029;-81
2021/09/15 11:33:26;;;;;;;;;;;24.90;72.10;;;;;;5044623;28;20022;-82
2021/09/15 11:35:59;;;;;;;6.78;6.07;;;24.90;71.60;;;;;;5043608;28;19909;-82
2021/09/15 11:38:31;;;;;;;8.88;5.70;;;24.80;71.40;;;;;;5035730;28;20030;-81
2021/09/15 11:41:07;;;;;;;6.68;5.70;;;24.70;71.90;;;;;;5043034;28;20080;-81
2021/09/15 11:43:34;;;;;;;6.22;5.63;;;24.70;72.10;;;;;;5035359;28;20021;-80
2021/09/15 11:46:00;;;;;;;9.30;6.15;;;24.60;73.20;;;;;;5044484;28;20025;-81
2021/09/15 11:48:27;;;;;;;7.63;5.88;;;24.60;73.00;;;;;;5044393;28;20550;-83
2021/09/15 11:50:54;;;;;;;5.47;4.82;;;24.40;74.60;;;;;;5062454;28;20049;-81
2021/09/15 11:53:20;;;;;;;7.20;5.25;;;24.30;74.10;;;;;;5057101;28;20061;-81
2021/09/15 11:55:50;;;;;;;8.10;6.13;;;24.20;74.50;;;;;;5044940;28;20031;-82
2021/09/15 11:58:16;;;;;;;9.95;6.32;;;24.10;75.70;;;;;;5062841;28;20036;-80
2021/09/15 12:00:42;;;;;;;6.32;5.55;;;24.00;76.10;;;;;;5061661;28;20020;-81
2021/09/15 12:03:12;;;;;;;9.20;6.18;;;24.00;77.30;;;;;;5061959;28;20032;-81
2021/09/15 12:05:43;;;;;;;7.03;5.03;;;24.00;77.70;;;;;;5052243;28;20024;-80
2021/09/15 12:08:10;;;;;;;8.15;6.20;;;24.20;76.90;;;;;;5061166;28;20047;-81
2021/09/15 12:10:36;;;;;;;8.82;6.65;;;24.30;75.80;;;;;;5053347;28;20390;-81
2021/09/15 12:13:02;;;;;;;11.32;6.50;;;24.40;75.40;;;;;;5054301;28;20036;-81
2021/09/15 12:15:28;;;;;;;6.57;5.82;;;24.40;76.30;;;;;;5029033;28;20025;-82
2021/09/15 12:17:58;;;;;;;7.85;5.50;;;24.40;76.30;;;;;;5027684;28;20118;-82
2021/09/15 12:20:48;;;;;;;5.90;5.40;;;24.30;76.50;;;;;;5040147;28;20097;-81
2021/09/15 12:23:15;;;;;;;7.25;5.47;;;24.20;77.10;;;;;;5054512;28;20029;-81
2021/09/15 12:25:52;;;;;;;5.35;4.85;;;24.30;76.50;;;;;;5044238;28;20044;-82
2021/09/15 12:28:23;;;;;;;6.80;6.10;;;24.40;76.60;;;;;;5024867;28;20032;-81
2021/09/15 12:30:49;;;;;;;6.00;5.40;;;24.40;76.80;;;;;;5034070;28;20128;-80
2021/09/15 12:33:37;;;;;;;6.68;5.40;;;24.50;76.70;;;;;;5053223;28;20029;-80
2021/09/15 12:36:20;;;;;;;7.95;6.00;;;24.60;76.50;;;;;;5045436;28;20017;-81
2021/09/15 12:38:50;;;;;;;8.02;6.53;;;24.40;76.00;;;;;;5053847;28;20016;-80
2021/09/15 12:41:17;;;;;;;6.65;5.75;;;24.30;76.90;;;;;;5051346;28;20060;-81
2021/09/15 12:43:43;;;;;;;10.27;6.25;;;24.10;77.90;;;;;;5044505;28;20036;-80
2021/09/15 12:46:26;;;;;;;8.60;7.03;;;24.00;78.10;;;;;;5043811;28;20021;-82
2021/09/15 12:48:52;;;;;;;6.55;5.93;;;23.80;79.20;;;;;;5039992;28;20028;-81
2021/09/15 12:51:19;;;;;;;8.02;7.22;;;23.70;79.90;;;;;;5039221;28;20030;-82
2021/09/15 12:53:49;;;;;;;9.95;7.90;;;23.50;81.20;;;;;;5058105;28;20112;-79
2021/09/15 12:56:16;;;;;;;9.30;7.63;;;23.40;82.10;;;;;;5063428;28;20029;-80
2021/09/15 12:58:42;;;;;;;8.10;7.25;;;23.20;83.40;;;;;;5055863;28;20159;-81
2021/09/15 13:01:53;;;;;;;11.77;6.97;;;23.10;84.10;;;;;;5026486;28;20029;-85
2021/09/15 13:04:20;;;;;;;7.95;7.15;;;23.00;86.10;;;;;;5008303;28;20043;-86
2021/09/15 13:06:46;;;;;;;11.07;7.60;;;22.80;89.00;;;;;;5045679;28;20136;-85
2021/09/15 13:09:12;;;;;;;7.82;6.90;;;22.60;90.00;;;;;;5054813;28;20501;-85
2021/09/15 13:11:38;;;;;;;11.00;8.23;;;22.30;91.30;;;;;;5048150;28;20453;-86
2021/09/15 13:14:04;;;;;;;7.45;6.75;;;22.10;92.20;;;;;;5027699;28;20116;-86
2021/09/15 13:16:30;;;;;;;12.10;8.25;;;22.00;93.10;;;;;;5039836;28;20029;-86
2021/09/15 13:18:55;;;;;;;9.60;8.38;;;22.00;93.10;;;;;;5033601;28;20033;-86
2021/09/15 13:21:21;;;;;;;10.50;9.40;;;22.10;93.90;;;;;;5029060;28;20036;-85
2021/09/15 13:23:47;;;;;;;8.90;7.55;;;22.20;93.50;;;;;;5052822;28;20481;-85
2021/09/15 13:26:13;;;;;;;10.25;9.15;;;22.40;93.30;;;;;;5024600;28;20057;-81
2021/09/15 13:28:38;;;;;;;9.45;7.97;;;22.60;93.30;;;;;;5037971;28;20021;-86
2021/09/15 13:31:04;;;;;;;14.10;8.65;;;22.70;93.30;;;;;;5048494;28;20025;-85
2021/09/15 13:33:30;;;;;;;10.63;9.18;;;22.70;93.20;;;;;;5039265;28;20060;-86
2021/09/15 13:35:58;;;;;;;9.63;8.50;;;22.80;92.80;;;;;;5049702;28;20147;-85
2021/09/15 13:38:24;;;;;;;10.55;8.75;;;22.80;92.90;;;;;;5037591;28;20033;-85
2021/09/15 13:40:50;;;;;;;11.32;9.57;;;22.70;92.80;;;;;;5035247;28;20028;-86
2021/09/15 13:43:15;;;;;;;9.35;7.25;;;22.60;93.10;;;;;;5058437;28;20022;-84
2021/09/15 13:45:41;;;;;;;8.25;7.32;;;22.60;93.50;;;;;;5058299;28;20021;-85
2021/09/15 13:48:08;;;;;;;11.20;9.80;;;22.60;93.80;;;;;;5029414;28;20052;-84
2021/09/15 13:50:37;;;;;;;12.90;11.60;;;22.60;93.50;;;;;;5068715;28;20037;-84
2021/09/15 13:53:07;;;;;;;12.38;8.88;;;22.50;93.50;;;;;;5040624;28;20458;-85
2021/09/15 13:55:57;;;;;;;7.72;7.03;;;22.30;94.20;;;;;;5039875;28;20171;-84
2021/09/15 13:58:43;;;;;;;9.75;8.82;;;22.30;94.80;;;;;;5021145;28;20061;-84
2021/09/15 14:07:51;;;;;;;8.63;7.35;;;22.50;95.30;;;;;;5047227;28;20048;-83
2021/09/15 14:13:39;;;;;;;9.07;7.88;;;23.40;93.80;;;;;;5058492;28;20083;-83
2021/09/15 14:16:05;;;;;;;10.95;8.85;;;23.70;93.10;;;;;;5036415;28;20024;-83
2021/09/15 14:18:31;;;;;;;12.77;10.60;;;24.10;91.60;;;;;;5032798;28;20036;-84
2021/09/15 14:21:01;;;;;;;8.40;6.93;;;24.40;90.20;;;;;;5051043;28;20029;-84
2021/09/15 14:23:49;;;;;;;;;;;;;;;;;;;;;
2021/09/15 14:26:17;;;;;;;7.85;6.60;;;24.90;89.50;;;;;;5050392;28;20108;-84
2021/09/15 14:28:43;;;;;;;10.70;9.57;;;24.90;87.90;;;;;;5032697;28;20027;-83
2021/09/15 14:31:09;;;;;;;10.45;7.70;;;24.90;85.90;;;;;;5043417;28;20029;-83
2021/09/15 14:33:35;;;;;;;9.48;7.88;;;25.00;85.90;;;;;;5039101;28;20029;-83
2021/09/15 14:36:01;;;;;;;9.80;8.35;;;24.90;85.40;;;;;;5047538;28;20025;-84
2021/09/15 14:38:27;;;;;;;8.55;7.63;;;24.90;84.00;;;;;;5038069;28;20041;-84
2021/09/15 14:40:52;;;;;;;10.05;8.75;;;24.60;85.50;;;;;;5038868;28;20052;-84
2021/09/15 14:43:18;;;;;;;7.65;6.30;;;24.30;85.30;;;;;;5038565;28;20105;-84
2021/09/15 14:45:44;;;;;;;9.00;6.82;;;23.90;86.90;;;;;;5019237;28;20022;-85
2021/09/15 14:48:10;;;;;;;6.80;6.18;;;23.60;88.60;;;;;;5038663;28;20030;-83
2021/09/15 14:50:36;;;;;;;8.43;7.65;;;23.50;89.60;;;;;;5057289;28;20040;-83
2021/09/15 14:53:02;;;;;;;11.77;7.85;;;23.40;89.00;;;;;;5057604;28;20056;-85
2021/09/15 14:55:28;;;;;;;8.40;7.57;;;23.20;89.20;;;;;;5040027;28;20112;-83
2021/09/15 14:57:57;;;;;;;8.88;8.07;;;23.00;90.30;;;;;;5057999;28;20026;-84
2021/09/15 15:00:23;;;;;;;8.65;7.18;;;23.00;90.50;;;;;;5055241;28;20032;-83